Time;durP1;ratioP1;P1;durP2;ratioP2;P2;SDS_P1;SDS_P2;PMS_P1;PMS_P2;Temp;Humidity;BMP_temperature;BMP_pressure;BME280_temperature;BME280_humidity;BME280_pressure;Samples;Min_cycle;Max_cycle;Signal;HPM_P1;HPM_P2
2023/12/21 00:01:06;;;;;;;;;;;;;;;;;;5145085;28;19920;-64
2023/12/21 00:03:37;;;;;;;;;;;;;;;;;;5148466;28;20384;-64
2023/12/21 00:06:08;;;;;;;;;;;;;;;;;;5144225;28;20073;-64
2023/12/21 00:08:39;;;;;;;;;;;;;;;;;;5148721;28;19941;-64
2023/12/21 00:11:10;;;;;;;;;;;;;;;;;;5147533;28;19925;-65
2023/12/21 00:13:41;;;;;;;;;;;;;;;;;;5128122;28;20301;-64
2023/12/21 00:16:12;;;;;;;;;;;;;;;;;;5143944;28;19949;-64
2023/12/21 00:18:43;;;;;;;;;;;;;;;;;;5128656;28;19918;-64
2023/12/21 00:21:14;;;;;;;;;;;;;;;;;;5148491;28;19918;-64
2023/12/21 00:23:45;;;;;;;;;;;;;;;;;;5128446;28;19917;-64
2023/12/21 00:26:16;;;;;;;;;;;;;;;;;;5126714;28;19938;-63
2023/12/21 00:28:47;;;;;;;;;;;;;;;;;;5127907;28;20421;-64
2023/12/21 00:31:18;;;;;;;;;;;;;;;;;;5144199;28;19918;-63
2023/12/21 00:33:49;;;;;;;;;;;;;;;;;;5132142;28;19936;-64
2023/12/21 00:36:20;;;;;;;;;;;;;;;;;;5144123;28;19922;-64
2023/12/21 00:38:51;;;;;;;;;;;;;;;;;;5127578;28;19964;-64
2023/12/21 00:41:22;;;;;;;;;;;;;;;;;;5127481;28;19932;-64
2023/12/21 00:43:53;;;;;;;;;;;;;;;;;;5127663;28;19918;-64
2023/12/21 00:46:24;;;;;;;;;;;;;;;;;;5143635;28;20332;-63
2023/12/21 00:48:55;;;;;;;;;;;;;;;;;;5127529;28;19918;-63
2023/12/21 00:51:26;;;;;;;;;;;;;;;;;;5143560;28;19922;-63
2023/12/21 00:53:57;;;;;;;;;;;;;;;;;;5143481;28;20349;-63
2023/12/21 00:56:28;;;;;;;;;;;;;;;;;;5127528;28;19925;-62
2023/12/21 00:58:59;;;;;;;;;;;;;;;;;;5127757;28;19922;-62
2023/12/21 01:01:31;;;;;;;;;;;;;;;;;;5143476;28;19922;-63
2023/12/21 01:04:02;;;;;;;;;;;;;;;;;;5143300;28;19989;-64
2023/12/21 01:06:36;;;;;;;;;;;;;;;;;;5127417;28;19976;-63
2023/12/21 01:09:08;;;;;;;;;;;;;;;;;;5151432;28;19960;-62
2023/12/21 01:11:39;;;;;;;;;;;;;;;;;;5127028;28;19993;-62
2023/12/21 01:14:10;;;;;;;;;;;;;;;;;;5127145;28;20018;-62
2023/12/21 01:16:41;;;;;;;;;;;;;;;;;;5126858;28;20288;-63
2023/12/21 01:19:12;;;;;;;;;;;;;;;;;;5143583;28;19921;-63
2023/12/21 01:21:43;;;;;;;;;;;;;;;;;;5143127;28;19933;-63
2023/12/21 01:24:14;;;;;;;;;;;;;;;;;;5127025;28;19925;-63
2023/12/21 01:26:45;;;;;;;;;;;;;;;;;;5126964;28;19918;-64
2023/12/21 01:29:16;;;;;;;;;;;;;;;;;;5126777;28;19918;-64
2023/12/21 01:31:47;;;;;;;;;;;;;;;;;;5126724;28;20281;-63
2023/12/21 01:34:18;;;;;;;;;;;;;;;;;;5126399;28;19926;-62
2023/12/21 01:36:49;;;;;;;;;;;;;;;;;;5142829;28;19922;-63
2023/12/21 01:39:20;;;;;;;;;;;;;;;;;;5126999;28;20263;-61
2023/12/21 01:41:51;;;;;;;;;;;;;;;;;;5142896;28;19917;-61
2023/12/21 01:44:22;;;;;;;;;;;;;;;;;;5126828;28;19965;-62
2023/12/21 01:46:53;;;;;;;;;;;;;;;;;;5126705;28;19964;-62
2023/12/21 01:49:24;;;;;;;;;;;;;;;;;;5141780;28;20009;-61
2023/12/21 01:51:55;;;;;;;;;;;;;;;;;;5126531;28;19941;-62
2023/12/21 01:54:26;;;;;;;;;;;;;;;;;;5142540;28;19926;-62
2023/12/21 01:56:57;;;;;;;;;;;;;;;;;;5126519;28;20326;-62
2023/12/21 01:59:28;;;;;;;;;;;;;;;;;;5126096;28;19977;-62
2023/12/21 02:01:59;;;;;;;;;;;;;;;;;;5125906;28;20416;-62
2023/12/21 02:04:30;;;;;;;;;;;;;;;;;;5126748;28;19929;-62
2023/12/21 02:07:01;;;;;;;;;;;;;;;;;;5142141;28;20266;-62
2023/12/21 02:09:32;;;;;;;;;;;;;;;;;;5125701;28;19918;-62
2023/12/21 02:12:03;;;;;;;;;;;;;;;;;;5125747;28;19961;-62
2023/12/21 02:14:34;;;;;;;;;;;;;;;;;;5126057;28;20386;-62
2023/12/21 02:17:05;;;;;;;;;;;;;;;;;;5127492;28;19918;-62
2023/12/21 02:19:36;;;;;;;;;;;;;;;;;;5127703;28;20292;-62
2023/12/21 02:22:07;;;;;;;;;;;;;;;;;;5142218;28;19965;-62
2023/12/21 02:24:38;;;;;;;;;;;;;;;;;;5127865;28;19968;-62
2023/12/21 02:27:09;;;;;;;;;;;;;;;;;;5126264;28;20385;-63
2023/12/21 02:29:40;;;;;;;;;;;;;;;;;;5127667;28;20005;-63
2023/12/21 02:32:11;;;;;;;;;;;;;;;;;;5125474;28;20008;-63
2023/12/21 02:34:42;;;;;;;;;;;;;;;;;;5125501;28;20289;-62
2023/12/21 02:37:13;;;;;;;;;;;;;;;;;;5141624;28;20089;-62
2023/12/21 02:39:44;;;;;;;;;;;;;;;;;;5141225;28;20400;-62
2023/12/21 02:42:15;;;;;;;;;;;;;;;;;;5141382;28;19918;-62
2023/12/21 02:44:46;;;;;;;;;;;;;;;;;;5142950;28;19918;-62
2023/12/21 02:47:17;;;;;;;;;;;;;;;;;;5125552;28;19925;-63
2023/12/21 02:50:03;;;;;;;;;;;;;;;;;;5120185;28;19926;-63
2023/12/21 02:52:34;;;;;;;;;;;;;;;;;;5113291;29;19922;-63
2023/12/21 02:55:05;;;;;;;;;;;;;;;;;;5088265;28;20001;-63
2023/12/21 02:57:36;;;;;;;;;;;;;;;;;;5104196;29;20436;-63
2023/12/21 03:00:08;;;;;;;;;;;;;;;;;;5104038;28;19926;-63
2023/12/21 03:02:39;;;;;;;;;;;;;;;;;;5102897;29;19947;-63
2023/12/21 03:05:10;;;;;;;;;;;;;;;;;;5103981;28;19969;-62
2023/12/21 03:07:41;;;;;;;;;;;;;;;;;;5104418;28;19922;-62
2023/12/21 03:10:12;;;;;;;;;;;;;;;;;;5088694;29;19923;-62
2023/12/21 03:12:43;;;;;;;;;;;;;;;;;;5104298;28;19929;-63
2023/12/21 03:15:14;;;;;;;;;;;;;;;;;;5103707;29;19957;-64
2023/12/21 03:17:45;;;;;;;;;;;;;;;;;;5103887;28;19922;-62
2023/12/21 03:20:16;;;;;;;;;;;;;;;;;;5108922;28;19929;-62
2023/12/21 03:22:48;;;;;;;;;;;;;;;;;;5125091;28;20382;-62
2023/12/21 03:25:19;;;;;;;;;;;;;;;;;;5140898;28;19925;-61
2023/12/21 03:27:50;;;;;;;;;;;;;;;;;;5125021;28;19922;-61
2023/12/21 03:30:21;;;;;;;;;;;;;;;;;;5125366;28;19926;-61
2023/12/21 03:32:52;;;;;;;;;;;;;;;;;;5124742;28;19918;-61
2023/12/21 03:35:24;;;;;;;;;;;;;;;;;;5140837;28;19926;-61
2023/12/21 03:37:54;;;;;;;;;;;;;;;;;;5141125;28;19952;-61
2023/12/21 03:40:25;;;;;;;;;;;;;;;;;;5124751;28;20289;-62
2023/12/21 03:42:56;;;;;;;;;;;;;;;;;;5141159;28;19918;-61
2023/12/21 03:45:29;;;;;;;;;;;;;;;;;;5124686;28;19918;-62
2023/12/21 03:48:00;;;;;;;;;;;;;;;;;;5140717;28;19921;-62
2023/12/21 03:50:31;;;;;;;;;;;;;;;;;;5125577;28;20397;-63
2023/12/21 03:53:02;;;;;;;;;;;;;;;;;;5123923;28;19933;-64
2023/12/21 03:55:33;;;;;;;;;;;;;;;;;;5140511;28;20017;-63
2023/12/21 03:58:04;;;;;;;;;;;;;;;;;;5125101;28;19961;-63
2023/12/21 04:00:35;;;;;;;;;;;;;;;;;;5143105;28;19928;-62
2023/12/21 04:03:06;;;;;;;;;;;;;;;;;;5144303;28;20284;-62
2023/12/21 04:05:37;;;;;;;;;;;;;;;;;;5129017;28;19922;-63
2023/12/21 04:08:08;;;;;;;;;;;;;;;;;;5128255;28;19933;-63
2023/12/21 04:10:39;;;;;;;;;;;;;;;;;;5144378;28;19921;-63
2023/12/21 04:13:10;;;;;;;;;;;;;;;;;;5128408;28;19976;-64
2023/12/21 04:15:41;;;;;;;;;;;;;;;;;;5144315;28;19918;-63
2023/12/21 04:18:12;;;;;;;;;;;;;;;;;;5144176;28;19917;-63
2023/12/21 04:20:43;;;;;;;;;;;;;;;;;;5128266;28;19918;-63
2023/12/21 04:23:14;;;;;;;;;;;;;;;;;;5128272;28;19913;-64
2023/12/21 04:25:45;;;;;;;;;;;;;;;;;;5140260;28;19997;-64
2023/12/21 04:28:16;;;;;;;;;;;;;;;;;;5128494;28;19965;-64
2023/12/21 04:30:47;;;;;;;;;;;;;;;;;;5128062;28;19922;-63
2023/12/21 04:33:18;;;;;;;;;;;;;;;;;;5127755;28;19964;-63
2023/12/21 04:35:49;;;;;;;;;;;;;;;;;;5143729;28;19946;-63
2023/12/21 04:38:20;;;;;;;;;;;;;;;;;;5127900;28;20035;-63
2023/12/21 04:40:51;;;;;;;;;;;;;;;;;;5127937;28;20012;-64
2023/12/21 04:43:22;;;;;;;;;;;;;;;;;;5127481;28;20104;-63
2023/12/21 04:45:53;;;;;;;;;;;;;;;;;;5127485;28;20332;-63
2023/12/21 04:48:24;;;;;;;;;;;;;;;;;;5127692;28;20001;-65
2023/12/21 04:50:55;;;;;;;;;;;;;;;;;;5127618;28;19918;-65
2023/12/21 04:53:26;;;;;;;;;;;;;;;;;;5127723;28;19933;-65
2023/12/21 04:55:57;;;;;;;;;;;;;;;;;;5127596;28;19918;-66
2023/12/21 04:58:28;;;;;;;;;;;;;;;;;;5143821;28;19918;-65
2023/12/21 05:00:59;;;;;;;;;;;;;;;;;;5127549;28;19965;-62
2023/12/21 05:03:30;;;;;;;;;;;;;;;;;;5137450;28;20001;-60
2023/12/21 05:06:01;;;;;;;;;;;;;;;;;;5143230;28;19922;-62
2023/12/21 05:08:32;;;;;;;;;;;;;;;;;;5126765;28;19945;-65
2023/12/21 05:11:03;;;;;;;;;;;;;;;;;;5126629;28;19918;-63
2023/12/21 05:13:35;;;;;;;;;;;;;;;;;;5127231;28;19976;-63
2023/12/21 05:16:06;;;;;;;;;;;;;;;;;;5143909;28;19918;-64
2023/12/21 05:18:37;;;;;;;;;;;;;;;;;;5126897;28;19993;-63
2023/12/21 05:21:09;;;;;;;;;;;;;;;;;;5127109;28;19918;-64
2023/12/21 05:23:40;;;;;;;;;;;;;;;;;;5142809;28;19918;-65
2023/12/21 05:26:11;;;;;;;;;;;;;;;;;;5143617;28;19995;-63
2023/12/21 05:28:42;;;;;;;;;;;;;;;;;;5147170;28;19922;-63
2023/12/21 05:31:13;;;;;;;;;;;;;;;;;;5127115;28;20377;-63
2023/12/21 05:33:44;;;;;;;;;;;;;;;;;;5143029;28;20400;-63
2023/12/21 05:36:15;;;;;;;;;;;;;;;;;;5127049;28;19993;-62
2023/12/21 05:38:46;;;;;;;;;;;;;;;;;;5143007;28;20372;-63
2023/12/21 05:41:17;;;;;;;;;;;;;;;;;;5142906;28;19922;-66
2023/12/21 05:43:48;;;;;;;;;;;;;;;;;;5126742;28;20005;-64
2023/12/21 05:46:19;;;;;;;;;;;;;;;;;;5127021;28;20441;-65
2023/12/21 05:48:50;;;;;;;;;;;;;;;;;;5126494;28;19918;-65
2023/12/21 05:51:21;;;;;;;;;;;;;;;;;;5142354;28;19918;-65
2023/12/21 05:53:52;;;;;;;;;;;;;;;;;;5126535;28;20056;-65
2023/12/21 05:56:23;;;;;;;;;;;;;;;;;;5142646;28;20649;-64
2023/12/21 05:58:54;;;;;;;;;;;;;;;;;;5142516;28;20452;-64
2023/12/21 06:01:25;;;;;;;;;;;;;;;;;;5142814;28;19977;-64
2023/12/21 06:03:56;;;;;;;;;;;;;;;;;;5126455;28;19996;-64
2023/12/21 06:06:27;;;;;;;;;;;;;;;;;;5126423;28;19918;-65
2023/12/21 06:08:58;;;;;;;;;;;;;;;;;;5142166;28;20211;-66
2023/12/21 06:11:29;;;;;;;;;;;;;;;;;;5126262;28;19922;-66
2023/12/21 06:14:00;;;;;;;;;;;;;;;;;;5142220;28;20286;-64
2023/12/21 06:16:31;;;;;;;;;;;;;;;;;;5126218;28;19917;-65
2023/12/21 06:19:09;;;;;;;;;;;;;;;;;;5138468;28;20288;-64
2023/12/21 06:21:40;;;;;;;;;;;;;;;;;;5126408;28;19969;-65
2023/12/21 06:24:11;;;;;;;;;;;;;;;;;;5125019;28;19921;-65
2023/12/21 06:26:42;;;;;;;;;;;;;;;;;;5143221;28;20262;-66
2023/12/21 06:29:13;;;;;;;;;;;;;;;;;;5125905;28;19922;-66
2023/12/21 06:31:44;;;;;;;;;;;;;;;;;;5141928;28;19988;-64
2023/12/21 06:34:15;;;;;;;;;;;;;;;;;;5125686;28;19928;-64
2023/12/21 06:36:46;;;;;;;;;;;;;;;;;;5126130;28;19957;-64
2023/12/21 06:39:17;;;;;;;;;;;;;;;;;;5126117;28;19922;-65
2023/12/21 06:41:48;;;;;;;;;;;;;;;;;;5125597;28;20297;-68
2023/12/21 06:44:19;;;;;;;;;;;;;;;;;;5125872;28;19922;-66
2023/12/21 06:46:51;;;;;;;;;;;;;;;;;;5125719;28;19914;-65
2023/12/21 06:49:22;;;;;;;;;;;;;;;;;;5125627;28;19928;-64
2023/12/21 06:51:53;;;;;;;;;;;;;;;;;;5141826;28;20400;-64
2023/12/21 06:54:24;;;;;;;;;;;;;;;;;;5125602;28;19922;-64
2023/12/21 06:56:55;;;;;;;;;;;;;;;;;;5141562;28;19918;-63
2023/12/21 06:59:26;;;;;;;;;;;;;;;;;;5125430;28;20285;-63
2023/12/21 07:01:57;;;;;;;;;;;;;;;;;;5142467;28;19918;-64
2023/12/21 07:04:28;;;;;;;;;;;;;;;;;;5141763;28;20428;-64
2023/12/21 07:06:59;;;;;;;;;;;;;;;;;;5133501;28;19926;-66
2023/12/21 07:09:30;;;;;;;;;;;;;;;;;;5141508;28;20310;-64
2023/12/21 07:12:01;;;;;;;;;;;;;;;;;;5140869;28;19945;-66
2023/12/21 07:14:32;;;;;;;;;;;;;;;;;;5135480;28;19926;-65
2023/12/21 07:17:03;;;;;;;;;;;;;;;;;;5125522;28;19988;-66
2023/12/21 07:19:37;;;;;;;;;;;;;;;;;;5141288;28;19926;-66
2023/12/21 07:22:08;;;;;;;;;;;;;;;;;;5125297;28;20396;-66
2023/12/21 07:24:39;;;;;;;;;;;;;;;;;;5125357;28;20523;-65
2023/12/21 07:27:10;;;;;;;;;;;;;;;;;;5141141;28;19926;-67
2023/12/21 07:29:43;;;;;;;;;;;;;;;;;;5125570;28;20412;-70
2023/12/21 07:32:14;;;;;;;;;;;;;;;;;;5125508;28;19925;-66
2023/12/21 07:34:45;;;;;;;;;;;;;;;;;;5126646;28;19921;-68
2023/12/21 07:37:17;;;;;;;;;;;;;;;;;;5145434;28;20008;-66
2023/12/21 07:39:48;;;;;;;;;;;;;;;;;;5145214;28;19924;-69
2023/12/21 07:42:19;;;;;;;;;;;;;;;;;;5129101;28;20293;-68
2023/12/21 07:44:50;;;;;;;;;;;;;;;;;;5145568;28;19921;-69
2023/12/21 07:47:21;;;;;;;;;;;;;;;;;;5129545;28;20036;-63
2023/12/21 07:49:52;;;;;;;;;;;;;;;;;;5144394;28;20001;-68
2023/12/21 07:52:23;;;;;;;;;;;;;;;;;;5143812;28;19923;-71
2023/12/21 07:54:54;;;;;;;;;;;;;;;;;;5144099;28;19928;-69
2023/12/21 07:57:25;;;;;;;;;;;;;;;;;;5144635;28;20068;-68
2023/12/21 07:59:56;;;;;;;;;;;;;;;;;;5128291;28;20027;-71
2023/12/21 08:02:27;;;;;;;;;;;;;;;;;;5144250;28;19922;-66
2023/12/21 08:04:58;;;;;;;;;;;;;;;;;;5144102;28;19925;-70
2023/12/21 08:07:29;;;;;;;;;;;;;;;;;;5128356;28;20377;-64
2023/12/21 08:10:01;;;;;;;;;;;;;;;;;;5128706;28;19997;-63
2023/12/21 08:12:35;;;;;;;;;;;;;;;;;;5128062;28;20008;-63
2023/12/21 08:15:06;;;;;;;;;;;;;;;;;;5127952;28;20363;-62
2023/12/21 08:17:38;;;;;;;;;;;;;;;;;;5144301;28;20380;-60
2023/12/21 08:20:12;;;;;;;;;;;;;;;;;;5127786;28;19922;-62
2023/12/21 08:22:44;;;;;;;;;;;;;;;;;;5144198;28;20583;-61
2023/12/21 08:25:15;;;;;;;;;;;;;;;;;;5144984;28;20036;-61
2023/12/21 08:27:46;;;;;;;;;;;;;;;;;;5145330;28;20369;-61
2023/12/21 08:30:17;;;;;;;;;;;;;;;;;;5144369;28;19918;-61
2023/12/21 08:32:48;;;;;;;;;;;;;;;;;;5128462;28;19925;-61
2023/12/21 08:35:19;;;;;;;;;;;;;;;;;;5144041;28;20005;-61
2023/12/21 08:37:50;;;;;;;;;;;;;;;;;;5128262;28;20027;-61
2023/12/21 08:40:21;;;;;;;;;;;;;;;;;;5143889;28;20385;-61
2023/12/21 08:42:52;;;;;;;;;;;;;;;;;;5128444;28;19928;-61
2023/12/21 08:45:23;;;;;;;;;;;;;;;;;;5143959;28;19918;-61
2023/12/21 08:47:55;;;;;;;;;;;;;;;;;;5143081;28;19922;-61
2023/12/21 08:50:26;;;;;;;;;;;;;;;;;;5127810;28;19922;-61
2023/12/21 08:52:59;;;;;;;;;;;;;;;;;;5143891;28;19924;-61
2023/12/21 08:55:31;;;;;;;;;;;;;;;;;;5127202;28;20011;-61
2023/12/21 08:58:02;;;;;;;;;;;;;;;;;;5127619;28;20276;-62
2023/12/21 09:00:33;;;;;;;;;;;;;;;;;;5128473;28;20009;-67
2023/12/21 09:03:04;;;;;;;;;;;;;;;;;;5141684;28;19928;-68
2023/12/21 09:05:35;;;;;;;;;;;;;;;;;;5127150;28;19928;-67
2023/12/21 09:08:06;;;;;;;;;;;;;;;;;;5127298;28;19918;-67
2023/12/21 09:10:37;;;;;;;;;;;;;;;;;;5143742;28;20361;-67
2023/12/21 09:13:08;;;;;;;;;;;;;;;;;;5143990;28;20317;-66
2023/12/21 09:15:39;;;;;;;;;;;;;;;;;;5127107;28;19989;-68
2023/12/21 09:18:10;;;;;;;;;;;;;;;;;;5142836;28;19926;-69
2023/12/21 09:20:41;;;;;;;;;;;;;;;;;;5142871;28;20352;-69
2023/12/21 09:23:13;;;;;;;;;;;;;;;;;;5143369;28;19972;-69
2023/12/21 09:25:44;;;;;;;;;;;;;;;;;;5126685;28;19964;-68
2023/12/21 09:28:14;;;;;;;;;;;;;;;;;;5143578;28;19962;-68
2023/12/21 09:30:46;;;;;;;;;;;;;;;;;;5132506;28;19921;-68
2023/12/21 09:33:18;;;;;;;;;;;;;;;;;;5150334;28;19918;-68
2023/12/21 09:35:54;;;;;;;;;;;;;;;;;;5127025;28;19965;-68
2023/12/21 09:38:25;;;;;;;;;;;;;;;;;;5142660;28;19928;-67
2023/12/21 09:40:57;;;;;;;;;;;;;;;;;;5143085;28;20253;-69
2023/12/21 09:43:28;;;;;;;;;;;;;;;;;;5142534;28;19922;-70
2023/12/21 09:45:59;;;;;;;;;;;;;;;;;;5143045;28;20343;-67
2023/12/21 09:48:30;;;;;;;;;;;;;;;;;;5142650;28;20004;-66
2023/12/21 09:51:02;;;;;;;;;;;;;;;;;;5138713;28;19941;-65
2023/12/21 09:53:33;;;;;;;;;;;;;;;;;;5143455;28;20451;-66
2023/12/21 09:56:04;;;;;;;;;;;;;;;;;;5126722;28;19937;-66
2023/12/21 09:58:35;;;;;;;;;;;;;;;;;;5126242;28;20392;-67
2023/12/21 10:01:07;;;;;;;;;;;;;;;;;;5142355;28;20344;-66
2023/12/21 10:03:38;;;;;;;;;;;;;;;;;;5142211;28;19925;-66
2023/12/21 10:06:09;;;;;;;;;;;;;;;;;;5142646;28;19933;-67
2023/12/21 10:08:41;;;;;;;;;;;;;;;;;;5142391;28;20281;-65
2023/12/21 10:11:12;;;;;;;;;;;;;;;;;;5141748;28;19928;-65
2023/12/21 10:13:43;;;;;;;;;;;;;;;;;;5125987;28;19977;-65
2023/12/21 10:16:16;;;;;;;;;;;;;;;;;;5142344;28;19922;-65
2023/12/21 10:18:49;;;;;;;;;;;;;;;;;;5142280;28;19928;-66
2023/12/21 10:21:21;;;;;;;;;;;;;;;;;;5125780;28;19929;-67
2023/12/21 10:23:52;;;;;;;;;;;;;;;;;;5126375;28;20617;-67
2023/12/21 10:26:23;;;;;;;;;;;;;;;;;;5125855;28;19925;-68
2023/12/21 10:28:54;;;;;;;;;;;;;;;;;;5135331;28;20381;-69
2023/12/21 10:31:25;;;;;;;;;;;;;;;;;;5125701;28;19921;-66
2023/12/21 10:33:57;;;;;;;;;;;;;;;;;;5141760;28;19976;-65
2023/12/21 10:36:28;;;;;;;;;;;;;;;;;;5141477;28;20008;-67
2023/12/21 10:38:59;;;;;;;;;;;;;;;;;;5141651;28;19918;-67
2023/12/21 10:41:30;;;;;;;;;;;;;;;;;;5141725;28;19922;-67
2023/12/21 10:44:01;;;;;;;;;;;;;;;;;;5141729;28;19981;-67
2023/12/21 10:46:32;;;;;;;;;;;;;;;;;;5125107;28;19925;-68
2023/12/21 10:49:04;;;;;;;;;;;;;;;;;;5141407;28;20285;-67
2023/12/21 10:51:40;;;;;;;;;;;;;;;;;;5141614;28;19918;-68
2023/12/21 10:54:14;;;;;;;;;;;;;;;;;;5141664;28;20300;-67
2023/12/21 10:56:45;;;;;;;;;;;;;;;;;;5141292;28;19969;-68
2023/12/21 10:59:16;;;;;;;;;;;;;;;;;;5124995;28;19918;-68
2023/12/21 11:01:47;;;;;;;;;;;;;;;;;;5125776;28;20262;-66
2023/12/21 11:04:18;;;;;;;;;;;;;;;;;;5125174;28;19929;-66
2023/12/21 11:06:49;;;;;;;;;;;;;;;;;;5141237;28;20337;-67
2023/12/21 11:09:20;;;;;;;;;;;;;;;;;;5124319;28;19980;-66
2023/12/21 11:11:57;;;;;;;;;;;;;;;;;;5141595;28;19925;-66
2023/12/21 11:14:28;;;;;;;;;;;;;;;;;;5124939;28;19977;-67
2023/12/21 11:16:59;;;;;;;;;;;;;;;;;;5141689;28;19947;-66
2023/12/21 11:19:30;;;;;;;;;;;;;;;;;;5140681;28;19998;-67
2023/12/21 11:22:01;;;;;;;;;;;;;;;;;;5141211;28;19954;-67
2023/12/21 11:24:32;;;;;;;;;;;;;;;;;;5136424;28;20016;-66
2023/12/21 11:27:03;;;;;;;;;;;;;;;;;;5140811;28;20004;-66
2023/12/21 11:29:34;;;;;;;;;;;;;;;;;;5140720;28;19918;-66
2023/12/21 11:32:05;;;;;;;;;;;;;;;;;;5125031;28;19985;-66
2023/12/21 11:34:37;;;;;;;;;;;;;;;;;;5140905;28;19922;-66
2023/12/21 11:37:08;;;;;;;;;;;;;;;;;;5141317;28;19976;-67
2023/12/21 11:39:39;;;;;;;;;;;;;;;;;;5141073;28;19977;-67
2023/12/21 11:42:10;;;;;;;;;;;;;;;;;;5140407;28;20336;-66
2023/12/21 11:44:41;;;;;;;;;;;;;;;;;;5140868;28;20020;-66
2023/12/21 11:47:12;;;;;;;;;;;;;;;;;;5140863;28;19926;-65
2023/12/21 11:49:44;;;;;;;;;;;;;;;;;;5141093;28;19927;-65
2023/12/21 11:52:15;;;;;;;;;;;;;;;;;;5124842;28;20008;-58
2023/12/21 11:54:47;;;;;;;;;;;;;;;;;;5124765;28;20360;-59
2023/12/21 11:57:18;;;;;;;;;;;;;;;;;;5124628;28;20263;-59
2023/12/21 11:59:51;;;;;;;;;;;;;;;;;;5140736;28;19922;-59
2023/12/21 12:02:22;;;;;;;;;;;;;;;;;;5140917;28;19981;-59
2023/12/21 12:04:53;;;;;;;;;;;;;;;;;;5124880;28;19926;-59
2023/12/21 12:07:24;;;;;;;;;;;;;;;;;;5124996;28;19922;-60
2023/12/21 12:09:55;;;;;;;;;;;;;;;;;;5140219;28;19924;-60
2023/12/21 12:12:26;;;;;;;;;;;;;;;;;;5140390;28;20399;-60
2023/12/21 12:14:57;;;;;;;;;;;;;;;;;;5140359;28;19922;-60
2023/12/21 12:17:28;;;;;;;;;;;;;;;;;;5124966;28;20346;-59
2023/12/21 12:19:59;;;;;;;;;;;;;;;;;;5140634;28;19918;-60
2023/12/21 12:22:30;;;;;;;;;;;;;;;;;;5126902;28;19922;-60
2023/12/21 12:25:01;;;;;;;;;;;;;;;;;;5143953;28;19965;-61
2023/12/21 12:27:32;;;;;;;;;;;;;;;;;;5128036;28;19961;-60
2023/12/21 12:30:03;;;;;;;;;;;;;;;;;;5143991;28;19922;-60
2023/12/21 12:32:34;;;;;;;;;;;;;;;;;;5144056;28;19993;-60
2023/12/21 12:35:07;;;;;;;;;;;;;;;;;;5143647;28;19928;-61
2023/12/21 12:37:38;;;;;;;;;;;;;;;;;;5128067;28;20338;-60
2023/12/21 12:40:09;;;;;;;;;;;;;;;;;;5143884;28;19925;-60
2023/12/21 12:42:40;;;;;;;;;;;;;;;;;;5143963;28;19917;-60
2023/12/21 12:45:11;;;;;;;;;;;;;;;;;;5143879;28;19922;-61
2023/12/21 12:47:43;;;;;;;;;;;;;;;;;;5143869;28;19922;-61
2023/12/21 12:50:14;;;;;;;;;;;;;;;;;;5143552;28;19973;-62
2023/12/21 12:52:45;;;;;;;;;;;;;;;;;;5127745;28;20349;-60
2023/12/21 12:55:16;;;;;;;;;;;;;;;;;;5127247;28;19921;-61
2023/12/21 12:57:49;;;;;;;;;;;;;;;;;;5127800;28;20263;-61
2023/12/21 13:00:19;;;;;;;;;;;;;;;;;;5143543;28;19924;-61
2023/12/21 13:02:50;;;;;;;;;;;;;;;;;;5143508;28;20014;-61
2023/12/21 13:05:21;;;;;;;;;;;;;;;;;;5127056;28;19918;-61
2023/12/21 13:07:52;;;;;;;;;;;;;;;;;;5127170;28;19921;-62
2023/12/21 13:10:24;;;;;;;;;;;;;;;;;;5148231;28;20339;-63
2023/12/21 13:12:55;;;;;;;;;;;;;;;;;;5159290;28;19922;-62
2023/12/21 13:15:26;;;;;;;;;;;;;;;;;;5155452;28;19925;-63
2023/12/21 13:17:58;;;;;;;;;;;;;;;;;;5143321;28;19924;-61
2023/12/21 13:20:30;;;;;;;;;;;;;;;;;;5126893;28;19968;-60
2023/12/21 13:23:02;;;;;;;;;;;;;;;;;;5143526;28;20388;-60
2023/12/21 13:25:34;;;;;;;;;;;;;;;;;;5142570;28;19965;-61
2023/12/21 13:28:05;;;;;;;;;;;;;;;;;;5127491;28;19984;-62
2023/12/21 13:30:36;;;;;;;;;;;;;;;;;;5128972;28;19926;-62
2023/12/21 13:33:10;;;;;;;;;;;;;;;;;;5126338;28;19975;-61
2023/12/21 13:35:41;;;;;;;;;;;;;;;;;;5126625;28;19922;-61
2023/12/21 13:38:12;;;;;;;;;;;;;;;;;;5141514;28;19924;-61
2023/12/21 13:40:43;;;;;;;;;;;;;;;;;;5126120;28;20301;-61
2023/12/21 13:43:14;;;;;;;;;;;;;;;;;;5142745;28;19926;-59
2023/12/21 13:45:45;;;;;;;;;;;;;;;;;;5149483;28;19918;-59
2023/12/21 13:48:21;;;;;;;;;;;;;;;;;;5124333;28;19979;-59
2023/12/21 13:50:52;;;;;;;;;;;;;;;;;;5125706;28;19993;-60
2023/12/21 13:53:23;;;;;;;;;;;;;;;;;;5141637;28;19922;-60
2023/12/21 13:55:54;;;;;;;;;;;;;;;;;;5142101;28;19925;-60
2023/12/21 13:58:25;;;;;;;;;;;;;;;;;;5142062;28;19954;-60
2023/12/21 14:00:56;;;;;;;;;;;;;;;;;;5127027;28;20247;-59
2023/12/21 14:03:27;;;;;;;;;;;;;;;;;;5142528;28;19918;-62
2023/12/21 14:05:58;;;;;;;;;;;;;;;;;;5126331;28;20286;-60
2023/12/21 14:08:29;;;;;;;;;;;;;;;;;;5130103;28;20027;-60
2023/12/21 14:11:00;;;;;;;;;;;;;;;;;;5142319;28;19926;-58
2023/12/21 14:13:31;;;;;;;;;;;;;;;;;;5142772;28;20054;-59
2023/12/21 14:16:02;;;;;;;;;;;;;;;;;;5143113;28;20434;-57
2023/12/21 14:18:33;;;;;;;;;;;;;;;;;;5128265;28;19918;-58
2023/12/21 14:21:04;;;;;;;;;;;;;;;;;;5126486;28;20091;-57
2023/12/21 14:23:35;;;;;;;;;;;;;;;;;;5125907;28;20005;-58
2023/12/21 14:26:08;;;;;;;;;;;;;;;;;;5139089;28;20333;-56
2023/12/21 14:28:39;;;;;;;;;;;;;;;;;;5126383;28;20612;-58
2023/12/21 14:31:10;;;;;;;;;;;;;;;;;;5139964;28;19925;-57
2023/12/21 14:33:41;;;;;;;;;;;;;;;;;;5116768;28;20112;-57
2023/12/21 14:36:12;;;;;;;;;;;;;;;;;;5114256;28;19948;-57
2023/12/21 14:38:43;;;;;;;;;;;;;;;;;;5120216;28;20013;-58
2023/12/21 14:41:14;;;;;;;;;;;;;;;;;;5141593;28;19918;-58
2023/12/21 14:43:45;;;;;;;;;;;;;;;;;;5141170;28;19925;-57
2023/12/21 14:46:16;;;;;;;;;;;;;;;;;;5140018;28;19914;-57
2023/12/21 14:48:47;;;;;;;;;;;;;;;;;;5121596;28;19918;-58
2023/12/21 14:51:20;;;;;;;;;;;;;;;;;;5122244;28;20057;-57
2023/12/21 14:53:51;;;;;;;;;;;;;;;;;;5143716;28;19937;-56
2023/12/21 14:56:23;;;;;;;;;;;;;;;;;;5139000;28;20026;-57
2023/12/21 14:58:56;;;;;;;;;;;;;;;;;;5127625;28;19922;-58
2023/12/21 15:01:28;;;;;;;;;;;;;;;;;;5123930;28;19961;-57
2023/12/21 15:03:59;;;;;;;;;;;;;;;;;;5124895;28;19980;-57
2023/12/21 15:06:30;;;;;;;;;;;;;;;;;;5140253;28;19917;-57
2023/12/21 15:09:01;;;;;;;;;;;;;;;;;;5147738;28;20821;-60
2023/12/21 15:11:32;;;;;;;;;;;;;;;;;;5135642;28;19961;-59
2023/12/21 15:14:03;;;;;;;;;;;;;;;;;;5130689;28;20404;-59
2023/12/21 15:16:34;;;;;;;;;;;;;;;;;;5124282;28;19976;-59
2023/12/21 15:19:08;;;;;;;;;;;;;;;;;;5139292;28;20342;-59
2023/12/21 15:21:39;;;;;;;;;;;;;;;;;;5135668;28;19918;-59
2023/12/21 15:24:10;;;;;;;;;;;;;;;;;;5125555;28;19973;-59
2023/12/21 15:26:41;;;;;;;;;;;;;;;;;;5125249;28;19917;-59
2023/12/21 15:29:12;;;;;;;;;;;;;;;;;;5125083;28;19941;-59
2023/12/21 15:31:43;;;;;;;;;;;;;;;;;;5124430;28;19921;-59
2023/12/21 15:34:14;;;;;;;;;;;;;;;;;;5125635;28;19929;-58
2023/12/21 15:36:45;;;;;;;;;;;;;;;;;;5140668;28;20227;-58
2023/12/21 15:39:18;;;;;;;;;;;;;;;;;;5140681;28;20024;-59
2023/12/21 15:41:49;;;;;;;;;;;;;;;;;;5124198;28;19918;-59
2023/12/21 15:44:20;;;;;;;;;;;;;;;;;;5124613;28;19925;-59
2023/12/21 15:46:52;;;;;;;;;;;;;;;;;;5140096;28;19918;-59
2023/12/21 15:49:23;;;;;;;;;;;;;;;;;;5140745;28;19922;-58
2023/12/21 15:51:54;;;;;;;;;;;;;;;;;;5124506;28;19972;-58
2023/12/21 15:54:25;;;;;;;;;;;;;;;;;;5124129;28;19933;-58
2023/12/21 15:56:56;;;;;;;;;;;;;;;;;;5143177;28;19970;-58
2023/12/21 15:59:33;;;;;;;;;;;;;;;;;;5128217;28;19965;-59
2023/12/21 16:02:04;;;;;;;;;;;;;;;;;;5128200;28;19972;-59
2023/12/21 16:04:35;;;;;;;;;;;;;;;;;;5144304;28;20066;-58
2023/12/21 16:07:06;;;;;;;;;;;;;;;;;;5143968;28;19929;-58
2023/12/21 16:09:37;;;;;;;;;;;;;;;;;;5143884;28;20300;-59
2023/12/21 16:12:08;;;;;;;;;;;;;;;;;;5143965;28;19918;-58
2023/12/21 16:14:39;;;;;;;;;;;;;;;;;;5143511;28;20385;-58
2023/12/21 16:17:10;;;;;;;;;;;;;;;;;;5143745;28;19922;-59
2023/12/21 16:19:41;;;;;;;;;;;;;;;;;;5144096;28;20056;-59
2023/12/21 16:22:13;;;;;;;;;;;;;;;;;;5127955;28;20005;-58
2023/12/21 16:24:45;;;;;;;;;;;;;;;;;;5143829;28;19918;-59
2023/12/21 16:27:16;;;;;;;;;;;;;;;;;;5143845;28;20419;-58
2023/12/21 16:29:47;;;;;;;;;;;;;;;;;;5143641;28;19996;-58
2023/12/21 16:32:19;;;;;;;;;;;;;;;;;;5143465;28;19922;-58
2023/12/21 16:34:50;;;;;;;;;;;;;;;;;;5143350;28;19922;-58
2023/12/21 16:37:21;;;;;;;;;;;;;;;;;;5127635;28;20269;-58
2023/12/21 16:39:52;;;;;;;;;;;;;;;;;;5127177;28;20000;-58
2023/12/21 16:42:23;;;;;;;;;;;;;;;;;;5143690;28;20384;-59
2023/12/21 16:44:55;;;;;;;;;;;;;;;;;;5127733;28;20345;-58
2023/12/21 16:47:26;;;;;;;;;;;;;;;;;;5143212;28;19918;-59
2023/12/21 16:49:57;;;;;;;;;;;;;;;;;;5127496;28;19922;-58
2023/12/21 16:52:28;;;;;;;;;;;;;;;;;;5143119;28;19925;-58
2023/12/21 16:55:00;;;;;;;;;;;;;;;;;;5126763;28;19985;-59
2023/12/21 16:57:32;;;;;;;;;;;;;;;;;;5155015;28;19922;-59
2023/12/21 17:00:05;;;;;;;;;;;;;;;;;;5143070;28;19918;-59
2023/12/21 17:02:36;;;;;;;;;;;;;;;;;;5142713;28;19918;-58
2023/12/21 17:05:07;;;;;;;;;;;;;;;;;;5144402;28;20000;-58
2023/12/21 17:07:39;;;;;;;;;;;;;;;;;;5125757;28;19918;-58
2023/12/21 17:10:10;;;;;;;;;;;;;;;;;;5148800;28;19918;-58
2023/12/21 17:12:41;;;;;;;;;;;;;;;;;;5142655;28;19996;-57